Time;durP1;ratioP1;P1;durP2;ratioP2;P2;SDS_P1;SDS_P2;PMS_P1;PMS_P2;Temp;Humidity;BMP_temperature;BMP_pressure;BME280_temperature;BME280_humidity;BME280_pressure;Samples;Min_cycle;Max_cycle;Signal;HPM_P1;HPM_P2
2022/08/06 00:02:05;;;;;;;4.43;3.30;;;27.70;74.50;;;;;;5018793;28;20025;-80
2022/08/06 00:04:31;;;;;;;4.55;3.78;;;27.70;74.20;;;;;;5016473;28;20386;-80
2022/08/06 00:06:57;;;;;;;4.97;3.67;;;27.70;74.60;;;;;;4998754;28;20026;-79
2022/08/06 00:09:23;;;;;;;4.35;3.42;;;27.60;75.00;;;;;;5017364;28;20556;-77
2022/08/06 00:11:49;;;;;;;5.78;3.70;;;27.60;75.10;;;;;;5022401;28;20054;-79
2022/08/06 00:14:14;;;;;;;3.65;3.20;;;27.50;75.50;;;;;;5013326;28;20511;-79
2022/08/06 00:16:41;;;;;;;7.13;3.67;;;27.50;75.80;;;;;;5002708;28;20034;-79
2022/08/06 00:19:06;;;;;;;4.72;3.67;;;27.40;76.30;;;;;;5022816;28;20073;-78
2022/08/06 00:21:32;;;;;;;4.53;3.53;;;27.30;76.50;;;;;;5026967;28;20030;-79
2022/08/06 00:23:58;;;;;;;4.20;3.65;;;27.20;76.70;;;;;;5007262;28;20034;-79
2022/08/06 00:26:24;;;;;;;7.38;3.75;;;27.30;76.90;;;;;;5026103;28;20487;-79
2022/08/06 00:28:51;;;;;;;6.05;3.72;;;27.20;76.90;;;;;;5010487;28;20045;-79
2022/08/06 00:31:17;;;;;;;5.80;3.70;;;27.20;77.20;;;;;;5028238;28;20064;-79
2022/08/06 00:33:42;;;;;;;4.18;3.78;;;27.20;77.30;;;;;;5012754;28;20038;-79
2022/08/06 00:36:09;;;;;;;9.95;3.75;;;27.20;77.60;;;;;;5033269;28;20025;-78
2022/08/06 00:38:35;;;;;;;5.75;3.85;;;27.20;77.80;;;;;;5011852;28;20025;-79
2022/08/06 00:41:02;;;;;;;4.85;3.83;;;27.10;78.10;;;;;;5031229;28;20056;-80
2022/08/06 00:43:28;;;;;;;14.38;4.00;;;27.10;78.40;;;;;;5029183;28;20026;-77
2022/08/06 00:45:53;;;;;;;8.93;3.85;;;27.10;78.60;;;;;;5027203;28;20029;-79
2022/08/06 00:48:19;;;;;;;5.97;3.78;;;27.10;78.80;;;;;;5014096;28;20077;-78
2022/08/06 00:50:45;;;;;;;6.63;3.92;;;27.00;79.00;;;;;;5031715;28;20022;-79
2022/08/06 00:53:11;;;;;;;6.13;3.90;;;27.00;79.40;;;;;;5027319;28;20044;-79
2022/08/06 00:55:36;;;;;;;5.35;3.72;;;26.90;79.50;;;;;;5020462;28;20054;-79
2022/08/06 00:58:06;;;;;;;5.25;3.85;;;26.80;80.00;;;;;;5016494;28;20052;-79
2022/08/06 01:00:33;;;;;;;5.97;3.95;;;26.80;80.30;;;;;;5016740;28;20076;-78
2022/08/06 01:02:59;;;;;;;4.00;3.63;;;26.80;80.60;;;;;;4998417;28;20101;-79
2022/08/06 01:05:25;;;;;;;5.88;3.90;;;26.80;80.80;;;;;;4999258;28;20080;-78
2022/08/06 01:07:51;;;;;;;5.50;3.90;;;26.70;80.90;;;;;;5017394;28;20539;-80
2022/08/06 01:10:17;;;;;;;5.68;3.50;;;26.70;81.30;;;;;;5019093;28;20029;-79
2022/08/06 01:12:43;;;;;;;5.05;4.15;;;26.70;81.60;;;;;;5009967;28;20022;-78
2022/08/06 01:15:09;;;;;;;6.45;4.35;;;26.70;81.80;;;;;;5014084;28;20034;-79
2022/08/06 01:17:55;;;;;;;5.10;3.72;;;26.60;81.90;;;;;;5033192;28;20030;-80
2022/08/06 01:20:28;;;;;;;5.90;4.20;;;26.60;82.10;;;;;;5016578;28;20080;-78
2022/08/06 01:23:22;;;;;;;4.85;3.72;;;26.70;82.40;;;;;;5031731;28;20033;-80
2022/08/06 01:26:13;;;;;;;7.13;3.88;;;26.70;82.50;;;;;;5023808;28;20034;-78
2022/08/06 01:29:25;;;;;;;6.35;3.72;;;26.60;82.40;;;;;;5025029;28;20022;-79
2022/08/06 01:32:01;;;;;;;10.23;3.80;;;26.70;82.50;;;;;;5013989;28;20405;-80
2022/08/06 01:34:31;;;;;;;8.40;4.30;;;26.70;82.80;;;;;;5003808;28;20026;-80
2022/08/06 01:37:11;;;;;;;14.50;4.47;;;26.70;83.20;;;;;;5021724;28;20513;-79
2022/08/06 01:39:39;;;;;;;10.13;4.53;;;26.60;83.80;;;;;;5002013;28;20030;-78
2022/08/06 01:42:07;;;;;;;14.93;4.40;;;26.60;84.40;;;;;;5001570;28;20119;-79
2022/08/06 01:44:36;;;;;;;17.25;4.78;;;26.50;85.10;;;;;;5021137;28;20030;-79
2022/08/06 01:47:07;;;;;;;13.60;4.28;;;26.50;86.00;;;;;;5018393;28;20026;-79
2022/08/06 01:49:36;;;;;;;14.90;4.15;;;26.40;86.80;;;;;;5022475;28;20505;-79
2022/08/06 01:52:02;;;;;;;9.10;3.88;;;26.30;87.70;;;;;;5007968;28;20017;-79
2022/08/06 01:54:29;;;;;;;8.15;3.85;;;26.20;88.60;;;;;;5001234;28;20057;-79
2022/08/06 01:56:57;;;;;;;14.00;4.30;;;26.10;89.30;;;;;;4999342;28;20026;-79
2022/08/06 01:59:34;;;;;;;10.93;4.47;;;26.00;90.00;;;;;;5000570;28;20108;-78
2022/08/06 02:02:03;;;;;;;16.92;4.60;;;25.90;90.40;;;;;;5009055;28;20026;-79
2022/08/06 02:04:34;;;;;;;24.27;4.47;;;25.90;90.90;;;;;;5006214;28;20152;-79
2022/08/06 02:07:03;;;;;;;13.57;3.83;;;25.80;91.20;;;;;;5032881;28;20045;-78
2022/08/06 02:09:31;;;;;;;27.70;4.47;;;25.70;91.60;;;;;;5035443;28;20021;-78
2022/08/06 02:12:03;;;;;;;7.40;3.60;;;25.60;92.10;;;;;;5027603;28;20668;-79
2022/08/06 02:14:32;;;;;;;7.88;4.00;;;25.60;92.60;;;;;;5029467;28;20022;-79
2022/08/06 02:17:01;;;;;;;11.30;4.20;;;25.50;93.00;;;;;;5034942;28;20017;-79
2022/08/06 02:19:29;;;;;;;11.02;4.45;;;25.40;93.50;;;;;;5017169;28;20068;-79
2022/08/06 02:21:59;;;;;;;8.93;3.90;;;25.40;94.10;;;;;;5035728;28;20021;-78
2022/08/06 02:24:28;;;;;;;8.23;3.65;;;25.40;94.80;;;;;;5035213;28;20084;-78
2022/08/06 02:26:55;;;;;;;6.25;3.65;;;25.30;95.40;;;;;;5035454;28;20079;-78
2022/08/06 02:29:23;;;;;;;5.22;3.75;;;25.20;96.10;;;;;;5035064;28;20068;-79
2022/08/06 02:31:49;;;;;;;10.10;3.97;;;25.20;96.90;;;;;;5025068;28;20481;-78
2022/08/06 02:34:15;;;;;;;8.77;4.20;;;25.10;98.10;;;;;;5010437;28;20044;-78
2022/08/06 02:36:49;;;;;;;8.32;4.30;;;25.00;99.20;;;;;;5040170;28;20030;-78
2022/08/06 02:39:30;;;;;;;19.90;4.53;;;24.80;99.90;;;;;;5028684;28;20034;-79
2022/08/06 02:42:05;;;;;;;6.90;4.05;;;24.60;99.90;;;;;;5038727;28;20069;-78
2022/08/06 02:45:05;;;;;;;8.60;3.65;;;24.50;99.90;;;;;;5038473;28;20116;-79
2022/08/06 02:47:38;;;;;;;10.73;4.18;;;24.40;99.90;;;;;;5027181;28;20052;-78
2022/08/06 02:50:06;;;;;;;8.15;4.25;;;24.20;99.90;;;;;;5002859;28;20030;-78
2022/08/06 02:52:46;;;;;;;16.45;4.45;;;24.10;99.90;;;;;;5012167;28;20041;-78
2022/08/06 02:55:18;;;;;;;8.88;4.30;;;23.90;99.90;;;;;;5037539;28;20056;-79
2022/08/06 02:57:54;;;;;;;8.05;4.03;;;23.80;99.90;;;;;;5033118;28;20037;-77
2022/08/06 03:00:21;;;;;;;4.60;4.00;;;23.70;99.90;;;;;;5032139;28;20505;-78
2022/08/06 03:02:52;;;;;;;8.93;4.25;;;23.60;99.90;;;;;;5033793;28;20021;-78
2022/08/06 03:05:20;;;;;;;5.63;4.35;;;23.70;99.90;;;;;;5023050;28;20029;-76
2022/08/06 03:07:49;;;;;;;4.88;4.22;;;23.60;99.90;;;;;;5035577;28;20013;-77
2022/08/06 03:10:19;;;;;;;8.15;4.18;;;23.60;99.90;;;;;;5035787;28;20017;-78
2022/08/06 03:12:47;;;;;;;4.68;4.18;;;23.50;99.90;;;;;;5035173;28;20033;-79
2022/08/06 03:15:13;;;;;;;4.93;4.45;;;23.50;99.90;;;;;;5025112;28;20026;-79
2022/08/06 03:17:43;;;;;;;5.63;4.57;;;23.40;99.90;;;;;;5010830;28;20048;-77
2022/08/06 03:20:12;;;;;;;5.50;4.15;;;23.40;99.90;;;;;;5032822;28;20085;-80
2022/08/06 03:22:40;;;;;;;5.82;4.78;;;23.30;99.90;;;;;;5037462;28;20029;-78
2022/08/06 03:25:09;;;;;;;4.63;3.90;;;23.30;99.90;;;;;;5036364;28;20120;-77
2022/08/06 03:27:39;;;;;;;7.15;4.97;;;23.30;99.90;;;;;;5017456;28;20044;-78
2022/08/06 03:30:06;;;;;;;8.40;4.22;;;23.20;99.90;;;;;;5011540;28;20024;-78
2022/08/06 03:32:32;;;;;;;6.68;4.85;;;23.20;99.90;;;;;;5031836;28;20025;-78
2022/08/06 03:34:59;;;;;;;5.85;4.50;;;23.10;99.90;;;;;;5012051;28;20029;-78
2022/08/06 03:37:26;;;;;;;7.05;4.47;;;23.10;99.90;;;;;;4981783;28;20046;-76
2022/08/06 03:39:53;;;;;;;7.80;5.28;;;23.10;99.90;;;;;;5003088;28;20026;-79
2022/08/06 03:42:19;;;;;;;4.95;4.45;;;23.00;99.90;;;;;;5024858;28;20022;-77
2022/08/06 03:44:45;;;;;;;7.82;4.80;;;23.00;99.90;;;;;;5045312;28;20018;-77
2022/08/06 03:47:32;;;;;;;5.50;4.70;;;23.00;99.90;;;;;;5037367;28;20028;-78
2022/08/06 03:50:18;;;;;;;6.13;4.20;;;23.00;99.90;;;;;;5038835;28;20021;-77
2022/08/06 03:52:50;;;;;;;11.00;4.93;;;22.80;99.90;;;;;;5046845;28;20026;-77
2022/08/06 03:55:27;;;;;;;6.72;4.43;;;22.80;99.90;;;;;;5029172;28;20033;-77
2022/08/06 03:57:59;;;;;;;7.35;4.53;;;22.80;99.90;;;;;;5020458;28;20100;-78
2022/08/06 04:00:30;;;;;;;6.18;4.55;;;22.80;99.90;;;;;;5020122;28;20203;-79
2022/08/06 04:02:58;;;;;;;8.30;5.40;;;22.70;99.90;;;;;;5026407;28;20033;-77
2022/08/06 04:05:27;;;;;;;8.48;5.07;;;22.70;99.90;;;;;;5042864;28;20032;-77
2022/08/06 04:08:02;;;;;;;6.63;5.10;;;22.70;99.90;;;;;;5044157;28;20032;-76
2022/08/06 04:10:31;;;;;;;8.88;5.25;;;22.70;99.90;;;;;;5023416;28;20118;-77
2022/08/06 04:12:58;;;;;;;9.90;5.45;;;22.70;99.90;;;;;;5043073;28;20421;-78
2022/08/06 04:15:24;;;;;;;9.23;5.60;;;22.70;99.90;;;;;;5037132;28;20539;-76
2022/08/06 04:17:53;;;;;;;9.00;5.45;;;22.70;99.90;;;;;;5042971;28;20108;-77
2022/08/06 04:20:21;;;;;;;6.57;5.00;;;22.70;99.90;;;;;;5046328;28;20093;-77
2022/08/06 04:22:48;;;;;;;5.57;5.07;;;22.70;99.90;;;;;;5025875;28;20086;-77
2022/08/06 04:25:14;;;;;;;8.05;5.50;;;22.80;99.90;;;;;;5041799;28;20025;-77
2022/08/06 04:27:42;;;;;;;6.22;5.18;;;22.80;99.90;;;;;;5041257;28;20360;-78
2022/08/06 04:30:10;;;;;;;5.97;5.13;;;22.90;99.90;;;;;;5020179;28;20025;-78
2022/08/06 04:32:38;;;;;;;7.80;5.28;;;22.90;99.90;;;;;;5037465;28;20016;-77
2022/08/06 04:35:07;;;;;;;6.72;5.05;;;23.00;99.90;;;;;;5047537;28;20105;-77
2022/08/06 04:37:34;;;;;;;5.68;4.97;;;23.10;99.90;;;;;;5028447;28;20048;-77
2022/08/06 04:40:01;;;;;;;6.13;5.53;;;23.20;99.90;;;;;;5045746;28;20033;-79
2022/08/06 04:42:27;;;;;;;8.02;5.70;;;23.20;99.90;;;;;;5046500;28;20037;-77
2022/08/06 04:44:54;;;;;;;7.82;5.88;;;23.20;99.90;;;;;;5046155;28;20037;-77
2022/08/06 04:47:19;;;;;;;6.35;5.57;;;23.20;99.90;;;;;;5027125;28;20033;-78
2022/08/06 04:49:45;;;;;;;9.65;6.28;;;23.30;99.90;;;;;;5041740;28;20022;-78
2022/08/06 04:52:26;;;;;;;9.32;5.63;;;23.30;99.90;;;;;;5065282;22;20057;-88
2022/08/06 04:54:52;;;;;;;8.68;5.45;;;23.30;99.90;;;;;;5035305;28;20154;-87
2022/08/06 04:57:18;;;;;;;6.78;5.53;;;23.30;99.90;;;;;;5006344;28;20018;-88
2022/08/06 04:59:45;;;;;;;9.35;5.60;;;23.40;99.90;;;;;;5022420;28;20064;-89
2022/08/06 05:02:11;;;;;;;13.52;6.03;;;23.30;99.90;;;;;;5039269;28;20022;-89
2022/08/06 05:04:38;;;;;;;11.85;5.35;;;23.40;99.90;;;;;;5022368;28;20022;-87
2022/08/06 05:07:22;;;;;;;6.35;5.45;;;23.40;99.90;;;;;;5022411;28;20025;-87
2022/08/06 05:09:48;;;;;;;10.35;6.28;;;23.40;99.90;;;;;;5022520;28;20018;-88
2022/08/06 05:12:27;;;;;;;13.27;6.05;;;23.30;99.90;;;;;;5022507;28;20010;-89
2022/08/06 05:15:20;;;;;;;7.57;5.40;;;23.40;99.90;;;;;;5017950;28;20036;-88
2022/08/06 05:17:53;;;;;;;9.63;5.78;;;23.40;99.90;;;;;;5013390;28;20069;-89
2022/08/06 05:20:20;;;;;;;7.53;5.97;;;23.40;99.90;;;;;;5035214;28;20034;-88
2022/08/06 05:23:17;;;;;;;6.05;4.80;;;23.40;99.90;;;;;;5022030;28;20025;-89
2022/08/06 05:25:44;;;;;;;7.85;5.57;;;23.50;99.90;;;;;;5022580;28;20049;-89
2022/08/06 05:28:10;;;;;;;6.75;5.35;;;23.60;99.90;;;;;;5021870;28;20017;-88
2022/08/06 05:30:46;;;;;;;10.35;5.15;;;23.60;99.90;;;;;;5019663;28;20018;-88
2022/08/06 05:33:23;;;;;;;8.38;5.18;;;23.60;99.90;;;;;;5038175;28;20071;-89
2022/08/06 05:35:49;;;;;;;9.82;5.63;;;23.50;99.90;;;;;;5020591;28;20033;-88
2022/08/06 05:38:15;;;;;;;6.32;5.35;;;23.50;99.90;;;;;;5002593;28;20076;-87
2022/08/06 05:40:41;;;;;;;7.38;5.38;;;23.50;99.90;;;;;;5019159;28;20028;-90
2022/08/06 05:43:07;;;;;;;11.25;5.80;;;23.50;99.90;;;;;;5005414;28;20018;-89
2022/08/06 05:45:34;;;;;;;10.13;5.45;;;23.60;99.90;;;;;;5022173;28;20053;-89
2022/08/06 05:48:03;;;;;;;8.52;5.35;;;23.60;99.90;;;;;;5020643;28;20022;-88
2022/08/06 05:50:34;;;;;;;8.52;5.82;;;23.60;99.90;;;;;;5027829;28;20057;-90
2022/08/06 05:53:08;;;;;;;7.10;6.05;;;23.60;99.90;;;;;;5026182;28;20076;-89
2022/08/06 05:55:48;;;;;;;7.07;5.22;;;23.60;99.90;;;;;;5008379;28;20034;-87
2022/08/06 05:58:23;;;;;;;7.93;5.85;;;23.70;99.90;;;;;;5011070;28;20124;-88
2022/08/06 06:00:51;;;;;;;9.02;5.85;;;23.70;99.90;;;;;;5013394;28;20044;-89
2022/08/06 06:03:19;;;;;;;8.40;5.75;;;23.80;99.90;;;;;;5011753;28;20101;-89
2022/08/06 06:05:45;;;;;;;8.93;6.13;;;23.80;99.90;;;;;;5012090;28;20120;-87
2022/08/06 06:08:11;;;;;;;6.80;5.32;;;23.80;99.90;;;;;;5012700;28;20037;-87
2022/08/06 06:10:39;;;;;;;8.60;5.40;;;23.90;99.90;;;;;;5032654;28;20022;-89
2022/08/06 06:13:07;;;;;;;7.13;5.20;;;23.90;99.90;;;;;;5015884;28;20104;-89
2022/08/06 06:15:42;;;;;;;9.10;5.97;;;23.90;99.90;;;;;;5017090;28;20109;-89
2022/08/06 06:18:13;;;;;;;8.93;5.85;;;23.90;99.90;;;;;;5019770;28;20052;-89
2022/08/06 06:21:07;;;;;;;10.15;5.57;;;24.00;99.90;;;;;;5037626;28;20013;-88
2022/08/06 06:23:44;;;;;;;12.70;5.70;;;24.00;99.90;;;;;;5020535;28;20038;-88
2022/08/06 06:26:27;;;;;;;10.18;5.78;;;24.10;99.90;;;;;;5037667;28;20033;-89
2022/08/06 06:29:15;;;;;;;7.15;5.10;;;24.30;99.90;;;;;;5020552;28;20041;-88
2022/08/06 06:32:08;;;;;;;6.95;5.30;;;24.50;99.90;;;;;;5020359;28;20037;-88
2022/08/06 06:34:46;;;;;;;10.82;6.60;;;24.60;99.90;;;;;;5017056;28;20037;-89
2022/08/06 06:37:37;;;;;;;7.75;5.25;;;24.80;99.90;;;;;;5036247;28;20018;-89
2022/08/06 06:40:21;;;;;;;7.75;4.85;;;24.80;99.90;;;;;;5037476;28;20018;-90
2022/08/06 06:43:12;;;;;;;9.48;4.85;;;25.00;99.90;;;;;;5020070;28;20048;-89
2022/08/06 06:45:44;;;;;;;12.20;4.95;;;25.10;99.90;;;;;;5037600;28;20034;-89
2022/08/06 06:48:18;;;;;;;5.05;3.95;;;25.00;99.90;;;;;;5020324;28;20022;-88
2022/08/06 06:50:47;;;;;;;4.32;3.92;;;24.80;99.90;;;;;;5016156;28;20033;-88
2022/08/06 06:53:16;;;;;;;7.80;4.28;;;24.70;99.90;;;;;;5031522;28;20103;-88
2022/08/06 06:55:48;;;;;;;5.47;4.35;;;24.60;99.90;;;;;;5017946;28;20038;-89
2022/08/06 06:58:37;;;;;;;5.22;4.07;;;24.40;99.90;;;;;;5035723;28;20042;-89
2022/08/06 07:01:09;;;;;;;6.28;3.45;;;24.20;99.90;;;;;;5033113;28;20038;-90
2022/08/06 07:03:38;;;;;;;3.83;3.13;;;24.00;99.90;;;;;;5016001;28;20034;-89
2022/08/06 07:06:07;;;;;;;6.00;3.20;;;23.80;99.90;;;;;;5034562;28;20022;-88
2022/08/06 07:08:40;;;;;;;4.68;2.90;;;23.60;99.90;;;;;;5019133;28;20041;-89
2022/08/06 07:11:08;;;;;;;2.67;2.42;;;23.50;99.90;;;;;;5004806;28;20034;-89
2022/08/06 07:13:37;;;;;;;5.32;3.10;;;23.30;99.90;;;;;;5025564;28;20033;-89
2022/08/06 07:16:05;;;;;;;2.42;2.22;;;23.30;99.90;;;;;;5032365;28;20013;-87
2022/08/06 07:18:33;;;;;;;2.72;2.47;;;23.20;99.90;;;;;;5027811;28;20024;-89
2022/08/06 07:21:00;;;;;;;2.83;2.50;;;23.20;99.90;;;;;;5031003;28;20026;-87
2022/08/06 07:23:26;;;;;;;3.65;2.53;;;23.20;99.90;;;;;;5033081;28;20081;-89
2022/08/06 07:25:54;;;;;;;3.22;2.10;;;23.20;99.90;;;;;;5018320;28;20041;-87
2022/08/06 07:28:23;;;;;;;1.95;1.80;;;23.30;99.90;;;;;;5050746;28;20022;-87
2022/08/06 07:30:49;;;;;;;4.72;2.58;;;23.30;99.90;;;;;;5032242;28;20088;-88
2022/08/06 07:33:18;;;;;;;2.35;1.98;;;23.30;99.90;;;;;;5033482;28;20081;-88
2022/08/06 07:35:46;;;;;;;2.05;1.80;;;23.30;99.90;;;;;;5034085;28;20040;-88
2022/08/06 07:38:16;;;;;;;2.75;1.98;;;23.20;99.90;;;;;;5053079;28;20013;-88
2022/08/06 07:40:54;;;;;;;2.80;2.10;;;23.20;99.90;;;;;;5035186;28;20033;-87
2022/08/06 07:43:45;;;;;;;2.67;1.80;;;23.10;99.90;;;;;;5051126;28;20093;-89
2022/08/06 07:46:16;;;;;;;2.17;1.50;;;23.20;99.90;;;;;;5036527;28;20041;-90
2022/08/06 07:48:54;;;;;;;3.38;1.60;;;23.20;99.90;;;;;;5022737;28;20030;-88
2022/08/06 07:51:23;;;;;;;1.63;1.50;;;23.20;99.90;;;;;;5057735;28;20025;-88
2022/08/06 07:53:50;;;;;;;2.30;1.73;;;23.10;99.90;;;;;;5057478;28;20033;-89
2022/08/06 07:56:21;;;;;;;2.80;1.40;;;23.00;99.90;;;;;;5057583;28;20029;-89
2022/08/06 07:58:48;;;;;;;2.30;1.60;;;22.90;99.90;;;;;;5016069;28;20026;-89
2022/08/06 08:01:14;;;;;;;2.15;1.63;;;22.80;99.90;;;;;;5009686;28;20085;-87
2022/08/06 08:06:31;;;;;;;3.83;1.27;;;22.70;99.90;;;;;;5028124;28;20153;-89
2022/08/06 08:09:18;;;;;;;1.80;1.30;;;22.60;99.90;;;;;;4992388;28;20115;-89
2022/08/06 08:11:46;;;;;;;2.50;1.67;;;22.50;99.90;;;;;;5031222;28;20037;-88
2022/08/06 08:14:18;;;;;;;2.75;1.20;;;22.40;99.90;;;;;;5006125;28;20022;-90
2022/08/06 08:16:45;;;;;;;3.50;1.65;;;22.40;99.90;;;;;;5024956;28;20029;-88
2022/08/06 08:19:32;;;;;;;2.72;1.30;;;22.40;99.90;;;;;;5002469;28;20053;-89
2022/08/06 08:22:05;;;;;;;1.80;1.20;;;22.30;99.90;;;;;;4997740;28;20042;-88
2022/08/06 08:24:31;;;;;;;1.42;1.23;;;22.30;99.90;;;;;;5017982;28;20081;-88
2022/08/06 08:26:58;;;;;;;5.07;1.08;;;22.40;99.90;;;;;;5015340;28;20022;-89
2022/08/06 08:29:24;;;;;;;1.83;1.20;;;22.40;99.90;;;;;;5017106;28;20025;-88
2022/08/06 08:31:50;;;;;;;1.38;1.08;;;22.40;99.90;;;;;;5001468;28;20018;-85
2022/08/06 08:34:16;;;;;;;1.50;1.10;;;22.40;99.90;;;;;;5039036;28;20059;-87
2022/08/06 08:36:43;;;;;;;4.22;1.20;;;22.40;99.90;;;;;;5039449;28;20010;-89
2022/08/06 08:39:09;;;;;;;2.45;1.30;;;22.50;99.90;;;;;;5022962;28;20014;-88
2022/08/06 08:42:02;;;;;;;3.63;1.20;;;22.50;99.90;;;;;;5022944;28;20085;-87
2022/08/06 08:47:09;;;;;;;2.33;1.25;;;22.40;99.90;;;;;;5057839;22;20056;-88
2022/08/06 08:49:53;;;;;;;2.33;1.10;;;22.50;99.90;;;;;;5042282;28;20041;-89
2022/08/06 08:52:27;;;;;;;1.10;0.90;;;22.50;99.90;;;;;;5040689;28;20022;-91
2022/08/06 08:55:02;;;;;;;1.08;0.55;;;22.50;99.90;;;;;;5021955;28;20029;-90
2022/08/06 08:57:28;;;;;;;1.88;0.68;;;22.50;99.90;;;;;;5046496;28;20034;-86
2022/08/06 08:59:54;;;;;;;0.65;0.65;;;22.40;99.90;;;;;;5018587;28;20056;-85
2022/08/06 09:02:23;;;;;;;2.30;0.80;;;22.30;99.90;;;;;;5015871;28;20060;-88
2022/08/06 09:04:51;;;;;;;4.07;1.30;;;22.40;99.90;;;;;;5035706;28;20098;-87
2022/08/06 09:07:23;;;;;;;4.20;1.20;;;22.50;99.90;;;;;;5017201;28;20174;-87
2022/08/06 09:09:49;;;;;;;3.90;1.80;;;22.60;99.90;;;;;;5034398;28;20029;-86
2022/08/06 09:12:16;;;;;;;6.85;1.52;;;22.70;99.90;;;;;;5034346;28;20032;-86
2022/08/06 09:14:43;;;;;;;3.83;1.42;;;22.70;99.90;;;;;;5037926;28;20030;-88
2022/08/06 09:17:09;;;;;;;1.75;1.15;;;22.80;99.90;;;;;;5044867;28;20026;-85
2022/08/06 09:19:36;;;;;;;1.75;1.48;;;22.70;99.90;;;;;;5043066;28;20064;-89
2022/08/06 09:22:27;;;;;;;2.38;1.15;;;22.70;99.90;;;;;;5030311;28;20033;-87
2022/08/06 09:25:23;;;;;;;2.00;1.23;;;22.60;99.90;;;;;;5024676;28;20081;-86
2022/08/06 09:28:34;;;;;;;1.40;1.20;;;22.50;99.90;;;;;;4994770;28;20041;-87
2022/08/06 09:31:11;;;;;;;2.30;1.10;;;22.50;99.90;;;;;;5012403;28;20097;-86
2022/08/06 09:33:39;;;;;;;3.05;0.88;;;22.60;99.90;;;;;;5031123;28;20056;-88
2022/08/06 09:36:08;;;;;;;2.47;1.10;;;22.50;99.90;;;;;;4983570;28;20080;-87
2022/08/06 09:38:47;;;;;;;1.42;1.08;;;22.60;99.90;;;;;;5015643;28;20026;-87
2022/08/06 09:41:13;;;;;;;2.72;1.08;;;22.80;99.90;;;;;;5035331;28;20017;-88
2022/08/06 09:43:40;;;;;;;1.85;0.90;;;23.00;99.90;;;;;;5021465;28;20016;-87
2022/08/06 09:46:06;;;;;;;2.50;1.00;;;23.10;99.90;;;;;;5021610;28;20046;-89
2022/08/06 09:48:33;;;;;;;3.53;1.02;;;23.10;99.90;;;;;;5021283;28;20030;-89
2022/08/06 09:51:00;;;;;;;1.08;0.90;;;23.20;99.90;;;;;;5037767;28;20026;-91
2022/08/06 09:53:26;;;;;;;2.03;1.00;;;23.40;99.90;;;;;;5037319;28;20040;-87
2022/08/06 09:55:54;;;;;;;1.38;0.98;;;23.60;99.90;;;;;;5035391;28;20025;-88
2022/08/06 09:58:26;;;;;;;2.78;0.82;;;23.60;99.90;;;;;;5020777;28;20006;-89
2022/08/06 10:00:52;;;;;;;1.75;0.90;;;23.50;99.90;;;;;;5037564;28;20033;-89
2022/08/06 10:03:18;;;;;;;0.70;0.70;;;23.40;99.90;;;;;;5020462;28;20021;-88
2022/08/06 10:05:44;;;;;;;2.97;0.90;;;23.30;99.90;;;;;;5019945;28;20050;-86
2022/08/06 10:08:13;;;;;;;1.27;0.80;;;23.30;99.90;;;;;;5027680;28;20021;-88
2022/08/06 10:10:51;;;;;;;1.00;0.70;;;23.30;99.90;;;;;;5052166;28;20036;-89
2022/08/06 10:13:23;;;;;;;1.90;0.90;;;23.30;99.90;;;;;;5052918;28;20033;-87
2022/08/06 10:15:51;;;;;;;0.60;0.60;;;23.20;99.90;;;;;;5051918;28;20144;-86
2022/08/06 10:18:38;;;;;;;0.80;0.80;;;23.00;99.90;;;;;;5050781;28;20044;-89
2022/08/06 10:21:27;;;;;;;1.25;0.80;;;22.70;99.90;;;;;;5036889;28;20056;-87
2022/08/06 10:24:03;;;;;;;2.35;0.70;;;22.80;99.90;;;;;;5035113;28;20105;-86
2022/08/06 10:26:33;;;;;;;2.38;1.02;;;22.70;99.90;;;;;;5036092;28;20025;-88
2022/08/06 10:29:03;;;;;;;2.13;1.00;;;22.40;99.90;;;;;;5019723;28;20029;-85
2022/08/06 10:31:31;;;;;;;2.05;1.10;;;22.30;99.90;;;;;;5054236;28;20085;-86
2022/08/06 10:34:02;;;;;;;3.90;1.10;;;22.40;99.90;;;;;;5037393;28;20081;-87
2022/08/06 10:36:43;;;;;;;2.55;1.35;;;22.20;99.90;;;;;;5055334;28;20057;-87
2022/08/06 10:39:09;;;;;;;1.30;1.20;;;22.20;99.90;;;;;;5053435;28;20085;-88
2022/08/06 10:41:38;;;;;;;2.35;1.30;;;22.40;99.90;;;;;;5053611;28;20017;-85
2022/08/06 10:44:05;;;;;;;3.85;1.40;;;22.90;99.90;;;;;;5020461;28;20041;-86
2022/08/06 10:46:32;;;;;;;1.58;1.48;;;23.40;99.90;;;;;;5017081;28;20030;-84
2022/08/06 10:48:59;;;;;;;2.00;1.45;;;23.30;99.90;;;;;;5034801;28;20033;-87
2022/08/06 10:51:26;;;;;;;1.70;1.60;;;23.70;99.90;;;;;;5017035;28;20022;-87
2022/08/06 10:53:54;;;;;;;6.55;1.63;;;24.00;99.90;;;;;;5050401;22;20042;-79
2022/08/06 10:56:19;;;;;;;2.08;1.83;;;24.00;99.90;;;;;;5031483;28;20026;-78
2022/08/06 10:58:45;;;;;;;6.82;2.25;;;24.00;99.90;;;;;;5012072;28;20030;-77
2022/08/06 11:01:21;;;;;;;2.30;2.05;;;23.90;99.90;;;;;;5009372;28;20030;-78
2022/08/06 11:04:14;;;;;;;3.13;1.95;;;24.00;99.90;;;;;;5040260;28;20033;-78
2022/08/06 11:07:04;;;;;;;2.10;1.90;;;24.20;99.90;;;;;;5044773;28;20033;-81
2022/08/06 11:09:39;;;;;;;4.28;2.60;;;24.10;99.90;;;;;;5046307;28;20108;-77
2022/08/06 11:12:44;;;;;;;3.47;2.33;;;23.70;99.90;;;;;;5042940;28;20040;-77
2022/08/06 11:15:10;;;;;;;3.87;2.37;;;23.50;99.90;;;;;;5038267;28;20037;-79
2022/08/06 11:17:54;;;;;;;5.55;2.40;;;23.50;99.90;;;;;;5039636;28;20100;-78
2022/08/06 11:20:32;;;;;;;4.53;2.28;;;23.40;99.90;;;;;;5023358;28;20037;-79
2022/08/06 11:23:03;;;;;;;2.63;1.98;;;23.30;99.90;;;;;;5040827;28;20045;-79
2022/08/06 11:25:40;;;;;;;5.82;2.40;;;23.30;99.90;;;;;;5039132;28;20060;-78
2022/08/06 11:28:07;;;;;;;4.43;2.40;;;23.40;99.90;;;;;;5039274;28;20025;-79
2022/08/06 11:30:42;;;;;;;2.10;1.60;;;23.70;99.90;;;;;;5038629;28;20021;-80
2022/08/06 11:33:12;;;;;;;3.30;1.95;;;24.30;99.90;;;;;;5042151;28;20053;-79
2022/08/06 11:35:44;;;;;;;4.07;2.10;;;25.40;99.90;;;;;;5009654;28;20029;-79
2022/08/06 11:38:12;;;;;;;2.00;1.80;;;26.20;99.90;;;;;;5042634;28;20036;-81
2022/08/06 11:40:59;;;;;;;3.67;2.13;;;26.70;99.90;;;;;;5044125;28;20032;-80
2022/08/06 11:43:53;;;;;;;2.22;1.90;;;26.70;99.90;;;;;;5022998;28;20033;-79
2022/08/06 11:46:26;;;;;;;2.25;1.70;;;26.30;99.90;;;;;;5046291;28;20029;-80
2022/08/06 11:49:03;;;;;;;2.35;1.73;;;25.80;99.90;;;;;;5049818;28;20025;-78
2022/08/06 11:51:59;;;;;;;2.42;1.70;;;25.50;99.90;;;;;;5048361;28;20018;-79
2022/08/06 11:54:32;;;;;;;1.58;1.48;;;25.50;99.90;;;;;;5047822;28;20029;-80
2022/08/06 11:59:28;;;;;;;2.35;1.77;;;25.70;99.90;;;;;;5042873;28;20025;-79
2022/08/06 12:01:54;;;;;;;5.40;1.90;;;25.80;99.90;;;;;;5043262;28;20032;-78
2022/08/06 12:04:32;;;;;;;2.80;1.75;;;26.10;99.90;;;;;;5042913;28;20077;-81
2022/08/06 12:07:22;;;;;;;4.38;1.65;;;26.70;99.90;;;;;;5042768;28;20100;-78
2022/08/06 12:10:11;;;;;;;2.03;1.40;;;27.20;99.90;;;;;;5025061;28;20067;-78
2022/08/06 12:12:52;;;;;;;4.38;1.73;;;27.00;99.80;;;;;;5046401;28;20029;-77
2022/08/06 12:15:23;;;;;;;2.17;1.88;;;26.90;99.90;;;;;;5050101;28;20049;-78
2022/08/06 12:17:58;;;;;;;7.07;2.03;;;26.70;99.90;;;;;;5051879;28;20026;-77
2022/08/06 12:20:32;;;;;;;2.05;1.58;;;26.60;99.90;;;;;;5049936;28;20062;-78
2022/08/06 12:23:03;;;;;;;4.80;2.23;;;26.60;99.90;;;;;;5050900;28;20029;-79
2022/08/06 12:25:30;;;;;;;2.30;2.00;;;26.30;99.90;;;;;;5031876;28;20034;-77
2022/08/06 12:27:56;;;;;;;2.50;1.70;;;26.00;99.90;;;;;;5047687;28;20018;-78
2022/08/06 12:30:23;;;;;;;6.63;2.13;;;25.80;99.90;;;;;;5046923;28;20029;-77
2022/08/06 12:32:48;;;;;;;2.70;2.00;;;25.70;99.90;;;;;;5046665;28;20096;-78
2022/08/06 12:35:14;;;;;;;3.35;1.80;;;26.00;99.90;;;;;;5048103;28;20033;-78
2022/08/06 12:37:42;;;;;;;2.55;1.80;;;26.80;99.80;;;;;;5044821;28;20378;-77
2022/08/06 12:40:26;;;;;;;8.30;2.20;;;28.30;98.10;;;;;;5044189;28;20029;-78
2022/08/06 12:43:12;;;;;;;4.85;1.90;;;29.00;96.50;;;;;;5058518;28;20037;-79
2022/08/06 12:45:39;;;;;;;1.90;1.65;;;28.50;96.60;;;;;;5056063;28;20044;-78
2022/08/06 12:48:13;;;;;;;1.92;1.58;;;28.10;96.80;;;;;;5036527;28;20032;-79
2022/08/06 12:50:41;;;;;;;2.30;1.70;;;27.90;96.90;;;;;;5055006;28;20017;-78
2022/08/06 12:53:09;;;;;;;3.03;1.92;;;27.60;97.30;;;;;;5056413;28;20060;-79
2022/08/06 12:55:41;;;;;;;2.50;1.92;;;27.30;97.50;;;;;;5042695;28;20364;-81
2022/08/06 12:58:09;;;;;;;2.70;1.95;;;27.10;97.90;;;;;;5066102;28;20033;-80
2022/08/06 13:00:36;;;;;;;3.10;2.42;;;27.60;97.70;;;;;;5067057;28;20028;-79
2022/08/06 13:03:03;;;;;;;3.00;2.22;;;28.60;96.10;;;;;;5069973;28;20093;-78
2022/08/06 13:05:30;;;;;;;2.58;2.22;;;28.60;95.50;;;;;;5069488;28;20040;-78
2022/08/06 13:07:57;;;;;;;5.40;2.55;;;28.40;95.70;;;;;;5066761;28;20028;-78
2022/08/06 13:10:24;;;;;;;3.60;2.63;;;28.50;95.70;;;;;;5048452;28;20021;-80
2022/08/06 13:13:01;;;;;;;4.30;2.67;;;28.50;95.50;;;;;;5065509;28;20029;-78
2022/08/06 13:15:29;;;;;;;3.55;2.88;;;28.00;95.70;;;;;;5064256;28;20021;-80
2022/08/06 13:18:05;;;;;;;10.15;2.70;;;27.90;95.60;;;;;;5060916;28;20047;-77